createdAt,value
2022-10-29T00:00:58.948Z,18.4
2022-10-29T00:02:13.101Z,18.4
2022-10-29T00:03:27.197Z,18.4
2022-10-29T00:04:41.356Z,18.3
2022-10-29T00:05:55.461Z,18.4
2022-10-29T00:07:09.623Z,18.4
2022-10-29T00:08:23.728Z,18.4
2022-10-29T00:09:37.869Z,18.4
2022-10-29T00:11:59.587Z,18.4
2022-10-29T00:13:13.714Z,18.4
2022-10-29T00:15:41.962Z,18.4
2022-10-29T00:16:56.104Z,18.4
2022-10-29T00:18:10.194Z,18.4
2022-10-29T00:20:38.445Z,18.4
2022-10-29T00:21:52.630Z,18.4
2022-10-29T00:24:17.589Z,18.4
2022-10-29T00:26:42.157Z,18.4
2022-10-29T00:27:56.258Z,18.4
2022-10-29T00:29:10.425Z,18.4
2022-10-29T00:30:24.510Z,18.4
2022-10-29T00:34:06.933Z,18.4
2022-10-29T00:35:21.096Z,18.4
2022-10-29T00:36:35.204Z,18.4
2022-10-29T00:37:46.064Z,18.4
2022-10-29T00:38:56.905Z,18.4
2022-10-29T00:41:25.183Z,18.4
2022-10-29T00:42:39.328Z,18.4
2022-10-29T00:43:53.469Z,18.3
2022-10-29T00:45:07.570Z,18.4
2022-10-29T00:47:35.824Z,18.4
2022-10-29T00:51:14.945Z,18.3
2022-10-29T00:52:25.779Z,18.4
2022-10-29T00:53:39.902Z,18.3
2022-10-29T00:54:54.068Z,18.3
2022-10-29T00:56:08.199Z,18.3
2022-10-29T00:57:22.351Z,18.3
2022-10-29T00:58:36.495Z,18.4
2022-10-29T00:59:50.550Z,18.4
2022-10-29T01:01:04.693Z,18.4
2022-10-29T01:02:18.804Z,18.3
2022-10-29T01:04:43.807Z,18.4
2022-10-29T01:05:54.683Z,18.4
2022-10-29T01:07:08.802Z,18.4
2022-10-29T01:08:22.934Z,18.4
2022-10-29T01:09:37.120Z,18.4
2022-10-29T01:10:51.243Z,18.4
2022-10-29T01:12:05.349Z,18.4
2022-10-29T01:13:19.486Z,18.3
2022-10-29T01:14:33.610Z,18.3
2022-10-29T01:15:47.743Z,18.3
2022-10-29T01:17:01.920Z,18.3
2022-10-29T01:19:23.267Z,18.3
2022-10-29T01:20:37.338Z,18.3
2022-10-29T01:21:51.484Z,18.2
2022-10-29T01:23:05.611Z,18.2
2022-10-29T01:25:33.898Z,18.2
2022-10-29T01:28:02.151Z,18.2
2022-10-29T01:29:16.281Z,18.2
2022-10-29T01:30:30.402Z,18.2
2022-10-29T01:31:41.296Z,18.2
2022-10-29T01:32:52.129Z,18.2
2022-10-29T01:34:06.366Z,18.1
2022-10-29T01:35:28.537Z,18.2
2022-10-29T01:36:42.694Z,18.1
2022-10-29T01:39:10.967Z,18.2
2022-10-29T01:40:25.082Z,18.2
2022-10-29T01:41:39.177Z,18.2
2022-10-29T01:42:53.330Z,18.2
2022-10-29T01:44:04.176Z,18.2
2022-10-29T01:45:15.102Z,18.2
2022-10-29T01:46:29.193Z,18.2
2022-10-29T01:48:57.495Z,18.2
2022-10-29T01:50:11.572Z,18.2
2022-10-29T01:51:25.704Z,18.2
2022-10-29T01:52:39.808Z,18.2
2022-10-29T01:53:54.004Z,18.2
2022-10-29T01:55:08.118Z,18.2
2022-10-29T01:56:22.240Z,18.2
2022-10-29T01:57:33.070Z,18.2
2022-10-29T01:58:43.986Z,18.2
2022-10-29T01:59:58.108Z,18.2
2022-10-29T02:01:12.230Z,18.2
2022-10-29T02:03:40.487Z,18.2
2022-10-29T02:06:08.721Z,18.1
2022-10-29T02:08:36.989Z,18.1
2022-10-29T02:09:51.175Z,18.1
2022-10-29T02:11:01.949Z,18.1
2022-10-29T02:12:12.856Z,18.1
2022-10-29T02:13:26.954Z,18.1
2022-10-29T02:15:55.229Z,18.1
2022-10-29T02:17:09.335Z,18.1
2022-10-29T02:18:23.503Z,18.1
2022-10-29T02:19:37.602Z,18.1
2022-10-29T02:20:51.729Z,18.1
2022-10-29T02:24:34.163Z,18
2022-10-29T02:27:02.425Z,18
2022-10-29T02:28:16.550Z,18
2022-10-29T02:29:30.758Z,18
2022-10-29T02:30:52.980Z,18
2022-10-29T02:32:07.104Z,18
2022-10-29T02:33:21.211Z,17.9
2022-10-29T02:35:46.230Z,17.9
2022-10-29T02:36:57.113Z,17.8
2022-10-29T02:38:11.236Z,17.8
2022-10-29T02:39:25.378Z,17.8
2022-10-29T02:40:39.498Z,17.8
2022-10-29T02:41:53.595Z,17.7
2022-10-29T02:43:07.718Z,17.8
2022-10-29T02:44:21.893Z,17.8
2022-10-29T02:45:35.994Z,17.8
2022-10-29T02:46:50.152Z,17.8
2022-10-29T02:49:15.113Z,17.7
2022-10-29T02:51:40.081Z,17.8
2022-10-29T02:52:54.211Z,17.8
2022-10-29T02:55:22.488Z,17.8
2022-10-29T02:56:36.629Z,17.8
2022-10-29T02:57:50.792Z,17.7
2022-10-29T02:59:04.861Z,17.7
2022-10-29T03:00:19.059Z,17.7
2022-10-29T03:01:33.139Z,17.7
2022-10-29T03:02:43.608Z,17.7
2022-10-29T03:03:54.447Z,17.7
2022-10-29T03:05:08.562Z,17.7
2022-10-29T03:07:36.868Z,17.7
2022-10-29T03:08:50.949Z,17.6
2022-10-29T03:11:19.240Z,17.6
2022-10-29T03:12:33.384Z,17.5
2022-10-29T03:15:01.626Z,17.5
2022-10-29T03:16:12.506Z,17.5
2022-10-29T03:17:23.359Z,17.5
2022-10-29T03:21:05.723Z,17.5
2022-10-29T03:22:19.868Z,17.4
2022-10-29T03:23:33.999Z,17.4
2022-10-29T03:24:48.123Z,17.4
2022-10-29T03:27:16.406Z,17.3
2022-10-29T03:28:30.501Z,17.3
2022-10-29T03:32:06.391Z,17.3
2022-10-29T03:33:20.484Z,17.3
2022-10-29T03:34:34.635Z,17.3
2022-10-29T03:35:48.767Z,17.3
2022-10-29T03:37:02.862Z,17.3
2022-10-29T03:38:17.040Z,17.2
2022-10-29T03:39:31.169Z,17.2
2022-10-29T03:40:45.264Z,17.2
2022-10-29T03:41:59.381Z,17.2
2022-10-29T03:43:10.267Z,17.2
2022-10-29T03:45:35.254Z,17.2
2022-10-29T03:46:49.383Z,17.2
2022-10-29T03:48:03.492Z,17.2
2022-10-29T03:49:17.635Z,17.2
2022-10-29T03:51:45.905Z,17.2
2022-10-29T03:53:00.041Z,17.2
2022-10-29T03:54:14.159Z,17.2
2022-10-29T03:55:28.256Z,17.2
2022-10-29T03:56:38.673Z,17.2
2022-10-29T03:57:49.540Z,17.2
2022-10-29T03:59:03.697Z,17.2
2022-10-29T04:01:31.931Z,17.2
2022-10-29T04:02:46.107Z,17.2
2022-10-29T04:04:00.181Z,17.2
2022-10-29T04:05:14.359Z,17.2
2022-10-29T04:06:28.478Z,17.2
2022-10-29T04:07:42.603Z,17.2
2022-10-29T04:08:56.751Z,17.2
2022-10-29T04:10:07.602Z,17.2
2022-10-29T04:11:18.454Z,17.2
2022-10-29T04:12:32.574Z,17.2
2022-10-29T04:13:46.711Z,17.2
2022-10-29T04:16:14.946Z,17.2
2022-10-29T04:17:29.128Z,17.2
2022-10-29T04:18:43.206Z,17.2
2022-10-29T04:19:57.390Z,17.2
2022-10-29T04:21:11.505Z,17.2
2022-10-29T04:22:25.629Z,17.2
2022-10-29T04:23:36.478Z,17.2
2022-10-29T04:26:01.477Z,17.2
2022-10-29T04:28:29.741Z,17.2
2022-10-29T04:32:12.144Z,17.2
2022-10-29T04:33:26.266Z,17.2
2022-10-29T04:34:40.376Z,17.2
2022-10-29T04:38:16.224Z,17.2
2022-10-29T04:39:30.370Z,17.2
2022-10-29T04:40:44.497Z,17.2
2022-10-29T04:41:58.590Z,17.2
2022-10-29T04:43:12.761Z,17.2
2022-10-29T04:44:26.902Z,17.2
2022-10-29T04:45:41.035Z,17.2
2022-10-29T04:46:55.119Z,17.3
2022-10-29T04:48:09.258Z,17.3
2022-10-29T04:49:23.438Z,17.2
2022-10-29T04:50:34.293Z,17.2
2022-10-29T04:52:59.263Z,17.2
2022-10-29T04:54:13.377Z,17.1
2022-10-29T04:56:41.651Z,17.1
2022-10-29T04:57:55.799Z,17.1
2022-10-29T04:59:09.867Z,17.1
2022-10-29T05:00:24.059Z,17.1
2022-10-29T05:01:38.146Z,17.1
2022-10-29T05:02:52.292Z,17.1
2022-10-29T05:04:03.162Z,17.2
2022-10-29T05:05:13.999Z,17.2
2022-10-29T05:06:28.149Z,17.2
2022-10-29T05:07:42.301Z,17.2
2022-10-29T05:08:56.392Z,17.2
2022-10-29T05:10:10.559Z,17.2
2022-10-29T05:11:24.626Z,17.2
2022-10-29T05:12:38.826Z,17.2
2022-10-29T05:13:52.945Z,17.1
2022-10-29T05:15:07.243Z,17.1
2022-10-29T05:17:32.042Z,17.1
2022-10-29T05:18:42.915Z,17.1
2022-10-29T05:21:11.164Z,17.1
2022-10-29T05:22:25.304Z,17.1
2022-10-29T05:23:39.410Z,17.1
2022-10-29T05:26:07.674Z,17.1
2022-10-29T05:27:21.764Z,17
2022-10-29T05:28:35.963Z,17
2022-10-29T05:29:50.070Z,17.1
2022-10-29T05:31:00.948Z,17.1
2022-10-29T05:33:25.885Z,17.1
2022-10-29T05:34:40.032Z,17.1
2022-10-29T05:35:54.163Z,17.1
2022-10-29T05:37:08.323Z,17.1
2022-10-29T05:38:22.428Z,17.1
2022-10-29T05:39:36.571Z,17.1
2022-10-29T05:40:50.709Z,17.1
2022-10-29T05:42:04.830Z,17.1
2022-10-29T05:43:18.982Z,17.1
2022-10-29T05:45:40.713Z,17.1
2022-10-29T05:46:54.828Z,17.1
2022-10-29T05:48:08.897Z,17.1
2022-10-29T05:49:23.085Z,17
2022-10-29T05:50:37.224Z,17
2022-10-29T05:51:51.329Z,17
2022-10-29T05:54:19.564Z,17
2022-10-29T05:56:47.844Z,17
2022-10-29T05:57:58.250Z,17
2022-10-29T05:59:09.129Z,17
2022-10-29T06:01:37.400Z,17
2022-10-29T06:02:51.491Z,17
2022-10-29T06:04:05.611Z,17
2022-10-29T06:06:33.939Z,17
2022-10-29T06:07:48.013Z,17
2022-10-29T06:10:16.259Z,17.1
2022-10-29T06:12:38.046Z,17
2022-10-29T06:13:52.185Z,17
2022-10-29T06:15:06.274Z,17
2022-10-29T06:16:20.408Z,17
2022-10-29T06:17:34.517Z,17
2022-10-29T06:18:48.656Z,17.1
2022-10-29T06:21:16.893Z,17.1
2022-10-29T06:22:31.026Z,17
2022-10-29T06:23:45.168Z,17
2022-10-29T06:24:56.065Z,17.1
2022-10-29T06:27:21.041Z,17.1
2022-10-29T06:28:35.140Z,17.1
2022-10-29T06:31:03.451Z,17
2022-10-29T06:34:45.797Z,17
2022-10-29T06:35:59.914Z,17
2022-10-29T06:37:14.095Z,17.1
2022-10-29T06:38:24.590Z,17.1
2022-10-29T06:39:35.411Z,17.1
2022-10-29T06:40:49.593Z,17.1
2022-10-29T06:42:03.691Z,17.1
2022-10-29T06:43:17.813Z,17.1
2022-10-29T06:45:46.052Z,17.1
2022-10-29T06:47:00.190Z,17.1
2022-10-29T06:48:14.307Z,17.1
2022-10-29T06:49:28.439Z,17.1
2022-10-29T06:50:42.629Z,17.1
2022-10-29T06:54:18.452Z,17
2022-10-29T06:55:32.573Z,17
2022-10-29T06:58:00.832Z,17.1
2022-10-29T06:59:14.964Z,17.1
2022-10-29T07:00:29.088Z,17
2022-10-29T07:01:43.212Z,17.1
2022-10-29T07:02:57.382Z,17
2022-10-29T07:04:11.501Z,17
2022-10-29T07:05:25.614Z,17
2022-10-29T07:06:36.505Z,16.9
2022-10-29T07:07:47.363Z,16.9
2022-10-29T07:09:01.470Z,17
2022-10-29T07:10:15.644Z,16.9
2022-10-29T07:11:29.749Z,17
2022-10-29T07:12:43.885Z,17
2022-10-29T07:15:12.134Z,17
2022-10-29T07:17:40.380Z,17
2022-10-29T07:18:54.509Z,17.1
2022-10-29T07:20:05.337Z,17
2022-10-29T07:22:30.375Z,17
2022-10-29T07:23:44.509Z,17.1
2022-10-29T07:24:58.610Z,17.1
2022-10-29T07:26:12.781Z,17.1
2022-10-29T07:27:26.880Z,17.1
2022-10-29T07:33:34.266Z,17.1
2022-10-29T07:35:59.267Z,17.2
2022-10-29T07:37:13.369Z,17.2
2022-10-29T07:38:27.520Z,17.2
2022-10-29T07:39:41.600Z,17.2
2022-10-29T07:40:55.771Z,17.2
2022-10-29T07:42:09.900Z,17.2
2022-10-29T07:43:24.001Z,17.2
2022-10-29T07:44:38.149Z,17.2
2022-10-29T07:45:52.277Z,17.3
2022-10-29T07:47:03.154Z,17.3
2022-10-29T07:48:14.033Z,17.3
2022-10-29T07:49:28.113Z,17.3
2022-10-29T07:50:42.263Z,17.3
2022-10-29T07:51:56.427Z,17.3
2022-10-29T07:53:10.523Z,17.3
2022-10-29T07:54:24.625Z,17.3
2022-10-29T07:55:38.804Z,17.3
2022-10-29T07:56:52.954Z,17.3
2022-10-29T07:58:07.059Z,17.3
2022-10-29T07:59:21.258Z,17.3
2022-10-29T08:01:42.966Z,17.3
2022-10-29T08:02:57.115Z,17.3
2022-10-29T08:04:11.266Z,17.4
2022-10-29T08:05:25.389Z,17.4
2022-10-29T08:06:39.521Z,17.4
2022-10-29T08:07:53.634Z,17.4
2022-10-29T08:10:21.855Z,17.5
2022-10-29T08:11:35.992Z,17.5
2022-10-29T08:14:01.000Z,17.5
2022-10-29T08:15:11.908Z,17.5
2022-10-29T08:16:26.109Z,17.5
2022-10-29T08:17:48.298Z,17.5
2022-10-29T08:19:02.449Z,17.6
2022-10-29T08:20:16.580Z,17.6
2022-10-29T08:21:30.734Z,17.6
2022-10-29T08:23:58.956Z,17.6
2022-10-29T08:25:13.114Z,17.6
2022-10-29T08:26:23.953Z,17.6
2022-10-29T08:27:34.815Z,17.6
2022-10-29T08:28:48.965Z,17.7
2022-10-29T08:31:17.202Z,17.7
2022-10-29T08:33:45.463Z,17.7
2022-10-29T08:34:59.560Z,17.7
2022-10-29T08:36:13.705Z,17.7
2022-10-29T08:39:52.817Z,17.7
2022-10-29T08:41:03.681Z,17.8
2022-10-29T08:42:17.869Z,17.8
2022-10-29T08:43:31.998Z,17.8
2022-10-29T08:44:46.074Z,17.8
2022-10-29T08:46:00.223Z,17.8
2022-10-29T08:48:28.551Z,17.8
2022-10-29T08:50:56.744Z,17.9
2022-10-29T08:53:21.700Z,17.9
2022-10-29T08:57:00.849Z,17.9
2022-10-29T08:58:14.973Z,17.9
2022-10-29T08:59:29.097Z,17.9
2022-10-29T09:00:43.216Z,17.9
2022-10-29T09:01:57.343Z,17.9
2022-10-29T09:03:11.521Z,18
2022-10-29T09:04:25.649Z,18
2022-10-29T09:05:39.722Z,18
2022-10-29T09:08:01.502Z,18.1
2022-10-29T09:09:15.595Z,18.1
2022-10-29T09:11:43.875Z,18.2
2022-10-29T09:12:58.015Z,18.3
2022-10-29T09:16:40.365Z,18.5
2022-10-29T09:17:54.509Z,18.6
2022-10-29T09:19:08.661Z,18.6
2022-10-29T09:20:19.491Z,18.7
2022-10-29T09:21:30.372Z,18.7
2022-10-29T09:22:44.501Z,18.8
2022-10-29T09:23:58.663Z,18.9
2022-10-29T09:25:12.786Z,18.9
2022-10-29T09:26:26.920Z,19
2022-10-29T09:27:41.017Z,19
2022-10-29T09:28:55.174Z,19.1
2022-10-29T09:31:23.418Z,19.1
2022-10-29T09:32:37.509Z,19.1
2022-10-29T09:33:48.396Z,19.2
2022-10-29T09:34:58.845Z,19.2
2022-10-29T09:37:27.092Z,19.2
2022-10-29T09:38:41.226Z,19.3
2022-10-29T09:41:09.463Z,19.3
2022-10-29T09:42:23.576Z,19.3
2022-10-29T09:43:37.700Z,19.3
2022-10-29T09:46:05.960Z,19.3
2022-10-29T09:47:16.881Z,19.3
2022-10-29T09:48:27.716Z,19.3
2022-10-29T09:49:41.834Z,19.3
2022-10-29T09:50:55.961Z,19.4
2022-10-29T09:52:10.112Z,19.4
2022-10-29T09:53:24.208Z,19.3
2022-10-29T09:54:38.334Z,19.4
2022-10-29T09:55:52.490Z,19.4
2022-10-29T09:57:06.641Z,19.3
2022-10-29T09:58:20.744Z,19.4
2022-10-29T09:59:34.903Z,19.4
2022-10-29T10:00:45.730Z,19.5
2022-10-29T10:01:56.577Z,19.5
2022-10-29T10:03:10.724Z,19.6
2022-10-29T10:04:24.877Z,19.6
2022-10-29T10:05:39.012Z,19.6
2022-10-29T10:06:53.243Z,19.6
2022-10-29T10:08:15.466Z,19.7
2022-10-29T10:10:43.696Z,19.7
2022-10-29T10:11:57.789Z,19.7
2022-10-29T10:14:19.586Z,19.8
2022-10-29T10:15:33.674Z,19.7
2022-10-29T10:16:47.812Z,19.7
2022-10-29T10:18:01.974Z,19.7
2022-10-29T10:20:30.206Z,19.8
2022-10-29T10:21:44.311Z,19.9
2022-10-29T10:22:58.431Z,19.9
2022-10-29T10:25:29.968Z,20
2022-10-29T10:26:40.611Z,20
2022-10-29T10:29:16.928Z,20
2022-10-29T10:30:31.045Z,20
2022-10-29T10:31:45.185Z,20.1
2022-10-29T10:32:59.333Z,20.2
2022-10-29T10:34:13.499Z,20.2
2022-10-29T10:35:27.602Z,20.2
2022-10-29T10:37:52.559Z,20.2
2022-10-29T10:39:03.451Z,20.2
2022-10-29T10:40:17.580Z,20.2
2022-10-29T10:41:31.697Z,20.2
2022-10-29T10:42:45.826Z,20.1
2022-10-29T10:45:14.087Z,20.1
2022-10-29T10:46:28.267Z,20.1
2022-10-29T10:47:50.558Z,20
2022-10-29T10:49:04.663Z,20
2022-10-29T10:50:15.525Z,20
2022-10-29T10:51:26.433Z,20
2022-10-29T10:52:40.563Z,20
2022-10-29T10:53:54.675Z,20
2022-10-29T10:55:08.788Z,20
2022-10-29T10:56:22.884Z,20
2022-10-29T10:57:37.073Z,20
2022-10-29T10:58:51.168Z,20.1
2022-10-29T11:02:33.594Z,20.1
2022-10-29T11:03:44.416Z,20.2
2022-10-29T11:04:55.270Z,20.2
2022-10-29T11:06:09.438Z,20.2
2022-10-29T11:08:37.675Z,20.2
2022-10-29T11:09:51.804Z,20.2
2022-10-29T11:11:05.961Z,20.3
2022-10-29T11:12:20.058Z,20.3
2022-10-29T11:13:34.165Z,20.3
2022-10-29T11:14:48.282Z,20.4
2022-10-29T11:18:24.146Z,20.4
2022-10-29T11:19:38.315Z,20.4
2022-10-29T11:20:52.414Z,20.5
2022-10-29T11:22:06.583Z,20.5
2022-10-29T11:23:20.699Z,20.6
2022-10-29T11:24:34.789Z,20.7
2022-10-29T11:25:48.985Z,20.8
2022-10-29T11:27:03.317Z,20.9
2022-10-29T11:29:31.299Z,21.2
2022-10-29T11:30:42.219Z,21.5
2022-10-29T11:31:53.084Z,21.7
2022-10-29T11:35:35.414Z,22.1
2022-10-29T11:36:49.574Z,22.2
2022-10-29T11:38:03.730Z,22.2
2022-10-29T11:39:17.838Z,22.2
2022-10-29T11:40:31.943Z,22.3
2022-10-29T11:43:00.246Z,22.4
2022-10-29T11:44:11.118Z,22.5
2022-10-29T11:46:36.084Z,22.7
2022-10-29T11:47:50.254Z,22.7
2022-10-29T11:50:18.501Z,23
2022-10-29T11:51:32.614Z,23
2022-10-29T11:54:00.837Z,23.1
2022-10-29T11:55:14.965Z,23.2
2022-10-29T11:56:29.107Z,23.2
2022-10-29T11:57:39.547Z,23.3
2022-10-29T11:58:50.435Z,23.3
2022-10-29T12:00:04.572Z,23.4
2022-10-29T12:01:18.661Z,23.4
2022-10-29T12:02:32.826Z,23.3
2022-10-29T12:03:46.894Z,23.3
2022-10-29T12:05:01.087Z,23.3
2022-10-29T12:07:29.295Z,23.4
2022-10-29T12:08:43.475Z,23.5
2022-10-29T12:11:08.422Z,23.4
2022-10-29T12:13:33.435Z,23
2022-10-29T12:14:47.544Z,23
2022-10-29T12:16:01.761Z,23.1
2022-10-29T12:18:29.963Z,23.2
2022-10-29T12:19:44.081Z,23.3
2022-10-29T12:22:12.362Z,23.6
2022-10-29T12:25:48.209Z,23.8
2022-10-29T12:27:02.300Z,23.8
2022-10-29T12:28:16.444Z,23.8
2022-10-29T12:30:44.674Z,23.8
2022-10-29T12:31:58.813Z,23.7
2022-10-29T12:35:41.219Z,24.2
2022-10-29T12:38:06.200Z,24.1
2022-10-29T12:39:17.078Z,24
2022-10-29T12:40:31.220Z,23.9
2022-10-29T12:44:13.579Z,23.7
2022-10-29T12:45:27.704Z,23.6
2022-10-29T12:47:55.981Z,23.3
2022-10-29T12:49:10.094Z,23.2
2022-10-29T12:50:24.253Z,23.2
2022-10-29T12:51:35.065Z,23.2
2022-10-29T12:52:45.993Z,23.1
2022-10-29T12:54:00.117Z,23.1
2022-10-29T12:55:14.244Z,23.1
2022-10-29T12:56:28.332Z,23
2022-10-29T12:58:56.674Z,23
2022-10-29T13:00:10.760Z,23
2022-10-29T13:01:24.864Z,23
2022-10-29T13:02:38.988Z,22.9
2022-10-29T13:05:04.005Z,22.8
2022-10-29T13:06:14.896Z,22.7
2022-10-29T13:07:28.962Z,22.7
2022-10-29T13:08:43.086Z,22.7
2022-10-29T13:09:57.276Z,22.7
2022-10-29T13:11:11.337Z,22.7
2022-10-29T13:12:25.463Z,22.7
2022-10-29T13:13:39.641Z,22.6
2022-10-29T13:14:53.776Z,22.6
2022-10-29T13:16:07.873Z,22.5
2022-10-29T13:18:32.860Z,22.5
2022-10-29T13:19:43.751Z,22.5
2022-10-29T13:20:57.875Z,22.5
2022-10-29T13:22:12.006Z,22.5
2022-10-29T13:24:40.264Z,22.5
2022-10-29T13:25:54.358Z,22.5
2022-10-29T13:27:08.531Z,22.4
2022-10-29T13:28:22.662Z,22.4
2022-10-29T13:29:36.791Z,22.4
2022-10-29T13:30:50.882Z,22.4
2022-10-29T13:33:12.649Z,22.5
2022-10-29T13:34:26.769Z,22.5
2022-10-29T13:35:40.875Z,22.6
2022-10-29T13:36:55.041Z,22.6
2022-10-29T13:39:23.249Z,22.7
2022-10-29T13:40:37.415Z,22.8
2022-10-29T13:41:51.536Z,22.8
2022-10-29T13:43:05.633Z,22.8
2022-10-29T13:44:19.771Z,22.8
2022-10-29T13:45:30.643Z,22.8
2022-10-29T13:46:41.528Z,22.7
2022-10-29T13:47:55.625Z,22.8
2022-10-29T13:49:09.754Z,22.8
2022-10-29T13:51:38.019Z,22.8
2022-10-29T13:52:52.159Z,22.8
2022-10-29T13:54:06.284Z,22.7
2022-10-29T13:55:20.419Z,22.7
2022-10-29T13:56:34.567Z,22.7
2022-10-29T13:58:59.521Z,22.7
2022-10-29T14:01:24.067Z,22.6
2022-10-29T14:03:52.329Z,22.5
2022-10-29T14:06:20.633Z,22.5
2022-10-29T14:07:34.757Z,22.4
2022-10-29T14:08:48.858Z,22.4
2022-10-29T14:10:03.009Z,22.4
2022-10-29T14:11:17.102Z,22.4
2022-10-29T14:12:28.032Z,22.4
2022-10-29T14:13:38.852Z,22.3
2022-10-29T14:14:52.964Z,22.3
2022-10-29T14:16:07.097Z,22.3
2022-10-29T14:17:21.275Z,22.3
2022-10-29T14:19:49.535Z,22.2
2022-10-29T14:21:03.640Z,22.2
2022-10-29T14:23:31.899Z,22.2
2022-10-29T14:24:46.032Z,22.3
2022-10-29T14:25:56.899Z,22.3
2022-10-29T14:29:35.977Z,22.3
2022-10-29T14:30:50.164Z,22.3
2022-10-29T14:32:04.246Z,22.3
2022-10-29T14:33:18.429Z,22.3
2022-10-29T14:35:46.662Z,22.2
2022-10-29T14:37:00.796Z,22.2
2022-10-29T14:38:14.895Z,22.2
2022-10-29T14:40:36.632Z,22.2
2022-10-29T14:41:50.762Z,22.2
2022-10-29T14:43:04.867Z,22.1
2022-10-29T14:45:33.191Z,22.1
2022-10-29T14:46:47.296Z,22
2022-10-29T14:48:01.383Z,22
2022-10-29T14:49:15.525Z,22
2022-10-29T14:50:29.708Z,22
2022-10-29T14:52:54.676Z,22
2022-10-29T14:54:05.184Z,21.9
2022-10-29T14:56:41.521Z,21.9
2022-10-29T14:57:55.641Z,21.9
2022-10-29T15:00:23.962Z,21.8
2022-10-29T15:01:38.073Z,21.8
2022-10-29T15:05:17.199Z,21.7
2022-10-29T15:08:56.313Z,21.6
2022-10-29T15:10:10.404Z,21.6
2022-10-29T15:11:24.538Z,21.6
2022-10-29T15:12:38.713Z,21.6
2022-10-29T15:15:06.931Z,21.5
2022-10-29T15:16:21.112Z,21.5
2022-10-29T15:18:46.084Z,21.5
2022-10-29T15:19:56.970Z,21.4
2022-10-29T15:22:25.231Z,21.4
2022-10-29T15:23:39.302Z,21.4
2022-10-29T15:24:53.424Z,21.3
2022-10-29T15:29:49.986Z,21.3
2022-10-29T15:32:14.955Z,21.2
2022-10-29T15:34:39.927Z,21.2
2022-10-29T15:38:22.320Z,21.1
2022-10-29T15:39:36.466Z,21.1
2022-10-29T15:44:32.992Z,21
2022-10-29T15:50:36.673Z,20.9
2022-10-29T15:51:50.790Z,20.8
2022-10-29T15:53:04.948Z,20.8
2022-10-29T15:54:19.021Z,20.8
2022-10-29T15:55:33.156Z,20.8
2022-10-29T15:56:47.297Z,20.8
2022-10-29T15:58:01.428Z,20.7
2022-10-29T15:59:12.273Z,20.7
2022-10-29T16:00:23.180Z,20.7
2022-10-29T16:01:37.306Z,20.7
2022-10-29T16:02:51.415Z,20.7
2022-10-29T16:04:05.551Z,20.7
2022-10-29T16:05:19.690Z,20.6
2022-10-29T16:06:33.833Z,20.6
2022-10-29T16:07:47.922Z,20.6
2022-10-29T16:09:02.074Z,20.6
2022-10-29T16:10:16.246Z,20.6
2022-10-29T16:11:30.358Z,20.6
2022-10-29T16:12:41.170Z,20.6
2022-10-29T16:13:52.041Z,20.5
2022-10-29T16:15:06.308Z,20.5
2022-10-29T16:16:28.475Z,20.4
2022-10-29T16:17:42.609Z,20.4
2022-10-29T16:18:56.780Z,20.4
2022-10-29T16:20:10.898Z,20.4
2022-10-29T16:25:04.170Z,20.4
2022-10-29T16:27:29.097Z,20.4
2022-10-29T16:28:43.240Z,20.3
2022-10-29T16:29:57.398Z,20.3
2022-10-29T16:31:11.546Z,20.3
2022-10-29T16:32:25.635Z,20.3
2022-10-29T16:33:39.760Z,20.3
2022-10-29T16:34:53.976Z,20.3
2022-10-29T16:37:27.078Z,20.2
2022-10-29T16:38:37.484Z,20.2
2022-10-29T16:39:51.660Z,20.1
2022-10-29T16:41:05.743Z,20.1
2022-10-29T16:43:34.057Z,20
2022-10-29T16:46:02.295Z,20
2022-10-29T16:47:16.395Z,20
2022-10-29T16:48:30.556Z,20
2022-10-29T16:49:44.643Z,20
2022-10-29T16:52:06.423Z,19.9
2022-10-29T16:54:34.671Z,19.9
2022-10-29T16:55:48.807Z,19.9
2022-10-29T16:59:31.182Z,19.9
2022-10-29T17:00:45.349Z,19.8
2022-10-29T17:01:59.420Z,19.8
2022-10-29T17:03:13.563Z,19.8
2022-10-29T17:04:24.465Z,19.8
2022-10-29T17:05:35.314Z,19.8
2022-10-29T17:06:49.393Z,19.8
2022-10-29T17:09:17.663Z,19.8
2022-10-29T17:10:31.786Z,19.8
2022-10-29T17:11:45.909Z,19.7
2022-10-29T17:13:00.058Z,19.7
2022-10-29T17:15:28.291Z,19.7
2022-10-29T17:16:42.421Z,19.7
2022-10-29T17:17:52.850Z,19.7
2022-10-29T17:19:03.765Z,19.7
2022-10-29T17:20:17.858Z,19.7
2022-10-29T17:21:31.967Z,19.7
2022-10-29T17:24:00.285Z,19.7
2022-10-29T17:25:14.387Z,19.7
2022-10-29T17:26:28.522Z,19.7
2022-10-29T17:27:42.658Z,19.7
2022-10-29T17:28:56.779Z,19.7
2022-10-29T17:31:21.769Z,19.6
2022-10-29T17:32:32.590Z,19.6
2022-10-29T17:33:46.771Z,19.6
2022-10-29T17:36:14.993Z,19.5
2022-10-29T17:38:43.245Z,19.5
2022-10-29T17:39:57.384Z,19.6
2022-10-29T17:41:11.563Z,19.5
2022-10-29T17:43:39.800Z,19.5
2022-10-29T17:44:50.630Z,19.5
2022-10-29T17:46:01.536Z,19.5
2022-10-29T17:47:15.666Z,19.5
2022-10-29T17:48:29.793Z,19.4
2022-10-29T17:50:58.041Z,19.4
2022-10-29T17:52:12.161Z,19.4
2022-10-29T17:53:26.259Z,19.5
2022-10-29T17:54:40.423Z,19.4
2022-10-29T17:55:54.526Z,19.4
2022-10-29T18:00:44.543Z,19.4
2022-10-29T18:03:12.819Z,19.4
2022-10-29T18:04:26.946Z,19.4
2022-10-29T18:05:41.037Z,19.4
2022-10-29T18:06:55.152Z,19.3
2022-10-29T18:08:09.337Z,19.3
2022-10-29T18:09:23.405Z,19.3
2022-10-29T18:10:37.531Z,19.3
2022-10-29T18:11:48.430Z,19.3
2022-10-29T18:12:59.259Z,19.3
2022-10-29T18:14:13.391Z,19.3
2022-10-29T18:15:27.559Z,19.3
2022-10-29T18:17:55.796Z,19.3
2022-10-29T18:19:09.940Z,19.3
2022-10-29T18:20:24.045Z,19.3
2022-10-29T18:21:38.205Z,19.3
2022-10-29T18:22:52.291Z,19.2
2022-10-29T18:24:06.480Z,19.2
2022-10-29T18:25:17.293Z,19.2
2022-10-29T18:26:28.209Z,19.2
2022-10-29T18:27:42.280Z,19.1
2022-10-29T18:28:56.404Z,19.1
2022-10-29T18:31:24.704Z,19.1
2022-10-29T18:32:38.857Z,19
2022-10-29T18:33:52.995Z,19
2022-10-29T18:35:07.056Z,19
2022-10-29T18:36:21.196Z,19
2022-10-29T18:37:35.385Z,19
2022-10-29T18:38:46.222Z,18.9
2022-10-29T18:41:10.787Z,18.9
2022-10-29T18:42:24.916Z,18.9
2022-10-29T18:43:39.047Z,18.9
2022-10-29T18:44:53.164Z,18.9
2022-10-29T18:46:07.262Z,18.9
2022-10-29T18:47:21.391Z,18.9
2022-10-29T18:51:03.807Z,18.8
2022-10-29T18:52:14.668Z,18.8
2022-10-29T18:53:25.525Z,18.8
2022-10-29T18:55:53.816Z,18.8
2022-10-29T18:57:07.948Z,18.7
2022-10-29T18:58:22.071Z,18.7
2022-10-29T19:06:54.416Z,18.8
2022-10-29T19:08:08.756Z,18.8
2022-10-29T19:10:45.105Z,18.8
2022-10-29T19:14:27.350Z,18.7
2022-10-29T19:15:41.533Z,18.7
2022-10-29T19:16:55.606Z,18.6
2022-10-29T19:18:06.495Z,18.6
2022-10-29T19:19:17.393Z,18.6
2022-10-29T19:20:31.530Z,18.5
2022-10-29T19:21:45.600Z,18.5
2022-10-29T19:24:13.861Z,18.5
2022-10-29T19:25:28.018Z,18.5
2022-10-29T19:26:42.156Z,18.5
2022-10-29T19:27:56.274Z,18.5
2022-10-29T19:29:10.392Z,18.4
2022-10-29T19:30:24.526Z,18.4
2022-10-29T19:31:35.382Z,18.3
2022-10-29T19:34:00.394Z,18.4
2022-10-29T19:35:14.502Z,18.4
2022-10-29T19:36:28.705Z,18.4
2022-10-29T19:37:42.798Z,18.3
2022-10-29T19:38:56.896Z,18.3
2022-10-29T19:41:25.199Z,18.3
2022-10-29T19:42:39.267Z,18.3
2022-10-29T19:45:04.298Z,18.3
2022-10-29T19:46:15.160Z,18.3
2022-10-29T19:47:29.275Z,18.3
2022-10-29T19:49:57.526Z,18.2
2022-10-29T19:51:11.663Z,18.2
2022-10-29T19:52:25.786Z,18.2
2022-10-29T19:53:39.910Z,18.2
2022-10-29T19:54:54.067Z,18.2
2022-10-29T19:56:08.161Z,18.1
2022-10-29T19:57:22.275Z,18.1
2022-10-29T19:58:33.177Z,18.1
2022-10-29T19:59:44.009Z,18.1
2022-10-29T20:00:58.168Z,18.1
2022-10-29T20:02:12.330Z,18.2
2022-10-29T20:04:40.577Z,18.2
2022-10-29T20:05:54.669Z,18.2
2022-10-29T20:07:08.802Z,18.2
2022-10-29T20:08:22.918Z,18.2
2022-10-29T20:09:37.043Z,18.3
2022-10-29T20:10:51.180Z,18.2
2022-10-29T20:14:27.060Z,18.2
2022-10-29T20:15:41.172Z,18.2
2022-10-29T20:16:55.343Z,18.3
2022-10-29T20:18:09.408Z,18.3
2022-10-29T20:19:23.576Z,18.2
2022-10-29T20:21:51.867Z,18.3
2022-10-29T20:24:20.116Z,18.3
2022-10-29T20:25:30.690Z,18.3
2022-10-29T20:26:41.351Z,18.3
2022-10-29T20:30:23.751Z,18.3
2022-10-29T20:31:37.869Z,18.2
2022-10-29T20:32:52.017Z,18.2
2022-10-29T20:34:06.189Z,18.2
2022-10-29T20:36:34.403Z,18.2
2022-10-29T20:37:48.547Z,18.2
2022-10-29T20:38:59.382Z,18.2
2022-10-29T20:41:24.421Z,18.1
2022-10-29T20:42:38.506Z,18.1
2022-10-29T20:43:52.678Z,18.1
2022-10-29T20:45:06.821Z,18.1
2022-10-29T20:46:20.905Z,18.1
2022-10-29T20:48:49.198Z,18
2022-10-29T20:50:03.324Z,18
2022-10-29T20:51:17.436Z,18
2022-10-29T20:52:28.313Z,18
2022-10-29T20:53:39.204Z,18
2022-10-29T20:54:53.273Z,18
2022-10-29T20:56:07.416Z,18
2022-10-29T20:57:21.560Z,17.9
2022-10-29T20:58:35.692Z,18
2022-10-29T21:01:03.914Z,18
2022-10-29T21:02:18.038Z,18
2022-10-29T21:03:32.192Z,18.1
2022-10-29T21:04:46.360Z,18